sensor_id;sensor_type;location;lat;lon;timestamp;P1;durP1;ratioP1;P2;durP2;ratioP2
49842;SDS011;55559;48.898;9.184;2023-05-10T00:01:16;1.33;;;0.10;;
49842;SDS011;55559;48.898;9.184;2023-05-10T00:03:44;0.75;;;0.00;;
49842;SDS011;55559;48.898;9.184;2023-05-10T00:06:14;0.65;;;0.00;;
49842;SDS011;55559;48.898;9.184;2023-05-10T00:08:43;0.90;;;0.10;;
49842;SDS011;55559;48.898;9.184;2023-05-10T00:11:11;0.22;;;0.00;;
49842;SDS011;55559;48.898;9.184;2023-05-10T00:13:38;0.45;;;0.00;;
49842;SDS011;55559;48.898;9.184;2023-05-10T00:16:07;0.73;;;0.00;;
49842;SDS011;55559;48.898;9.184;2023-05-10T00:18:36;1.50;;;0.00;;
49842;SDS011;55559;48.898;9.184;2023-05-10T00:21:04;0.10;;;0.00;;
49842;SDS011;55559;48.898;9.184;2023-05-10T00:23:32;1.08;;;0.00;;
49842;SDS011;55559;48.898;9.184;2023-05-10T00:26:00;0.40;;;0.00;;
49842;SDS011;55559;48.898;9.184;2023-05-10T00:28:27;0.95;;;0.10;;
49842;SDS011;55559;48.898;9.184;2023-05-10T00:30:55;2.83;;;0.00;;
49842;SDS011;55559;48.898;9.184;2023-05-10T00:33:23;0.38;;;0.00;;
49842;SDS011;55559;48.898;9.184;2023-05-10T00:35:52;0.15;;;0.10;;
49842;SDS011;55559;48.898;9.184;2023-05-10T00:38:19;0.30;;;0.10;;
49842;SDS011;55559;48.898;9.184;2023-05-10T00:40:47;0.30;;;0.00;;
49842;SDS011;55559;48.898;9.184;2023-05-10T00:43:23;3.08;;;0.00;;
49842;SDS011;55559;48.898;9.184;2023-05-10T00:45:52;0.57;;;0.00;;
49842;SDS011;55559;48.898;9.184;2023-05-10T00:48:19;0.05;;;0.00;;
49842;SDS011;55559;48.898;9.184;2023-05-10T00:50:48;0.20;;;0.00;;
49842;SDS011;55559;48.898;9.184;2023-05-10T00:53:19;0.40;;;0.10;;
49842;SDS011;55559;48.898;9.184;2023-05-10T00:55:48;2.22;;;0.00;;
49842;SDS011;55559;48.898;9.184;2023-05-10T00:58:16;0.00;;;0.00;;
49842;SDS011;55559;48.898;9.184;2023-05-10T01:00:44;0.85;;;0.05;;
49842;SDS011;55559;48.898;9.184;2023-05-10T01:03:15;0.38;;;0.00;;
49842;SDS011;55559;48.898;9.184;2023-05-10T01:05:43;0.20;;;0.00;;
49842;SDS011;55559;48.898;9.184;2023-05-10T01:08:10;0.22;;;0.10;;
49842;SDS011;55559;48.898;9.184;2023-05-10T01:10:39;1.38;;;0.10;;
49842;SDS011;55559;48.898;9.184;2023-05-10T01:13:07;0.35;;;0.08;;
49842;SDS011;55559;48.898;9.184;2023-05-10T01:15:34;1.65;;;0.00;;
49842;SDS011;55559;48.898;9.184;2023-05-10T01:18:06;2.00;;;0.10;;
49842;SDS011;55559;48.898;9.184;2023-05-10T01:20:39;0.10;;;0.00;;
49842;SDS011;55559;48.898;9.184;2023-05-10T01:23:12;2.08;;;0.10;;
49842;SDS011;55559;48.898;9.184;2023-05-10T01:29:00;0.20;;;0.10;;
49842;SDS011;55559;48.898;9.184;2023-05-10T01:34:54;0.30;;;0.20;;
49842;SDS011;55559;48.898;9.184;2023-05-10T01:37:30;0.50;;;0.40;;
49842;SDS011;55559;48.898;9.184;2023-05-10T01:40:08;0.30;;;0.22;;
49842;SDS011;55559;48.898;9.184;2023-05-10T01:42:45;0.30;;;0.20;;
49842;SDS011;55559;48.898;9.184;2023-05-10T01:45:19;3.28;;;0.20;;
49842;SDS011;55559;48.898;9.184;2023-05-10T01:47:56;5.38;;;0.20;;
49842;SDS011;55559;48.898;9.184;2023-05-10T01:50:32;0.40;;;0.20;;
49842;SDS011;55559;48.898;9.184;2023-05-10T01:53:05;0.40;;;0.30;;
49842;SDS011;55559;48.898;9.184;2023-05-10T01:55:39;0.85;;;0.20;;
49842;SDS011;55559;48.898;9.184;2023-05-10T01:58:11;0.88;;;0.30;;
49842;SDS011;55559;48.898;9.184;2023-05-10T02:00:42;0.73;;;0.32;;
49842;SDS011;55559;48.898;9.184;2023-05-10T02:03:13;0.80;;;0.30;;
49842;SDS011;55559;48.898;9.184;2023-05-10T02:05:42;4.03;;;0.20;;
49842;SDS011;55559;48.898;9.184;2023-05-10T02:08:11;1.33;;;0.30;;
49842;SDS011;55559;48.898;9.184;2023-05-10T02:10:42;2.33;;;0.30;;
49842;SDS011;55559;48.898;9.184;2023-05-10T02:13:11;2.63;;;0.20;;
49842;SDS011;55559;48.898;9.184;2023-05-10T02:15:40;0.88;;;0.20;;
49842;SDS011;55559;48.898;9.184;2023-05-10T02:18:10;0.30;;;0.20;;
49842;SDS011;55559;48.898;9.184;2023-05-10T02:20:40;0.28;;;0.20;;
49842;SDS011;55559;48.898;9.184;2023-05-10T02:23:08;0.60;;;0.20;;
49842;SDS011;55559;48.898;9.184;2023-05-10T02:25:38;1.38;;;0.20;;
49842;SDS011;55559;48.898;9.184;2023-05-10T02:28:07;3.83;;;0.15;;
49842;SDS011;55559;48.898;9.184;2023-05-10T02:30:36;0.38;;;0.20;;
49842;SDS011;55559;48.898;9.184;2023-05-10T02:33:04;1.67;;;0.30;;
49842;SDS011;55559;48.898;9.184;2023-05-10T02:35:35;0.43;;;0.30;;
49842;SDS011;55559;48.898;9.184;2023-05-10T02:38:04;0.47;;;0.20;;
49842;SDS011;55559;48.898;9.184;2023-05-10T02:40:33;0.38;;;0.17;;
49842;SDS011;55559;48.898;9.184;2023-05-10T02:43:03;0.85;;;0.20;;
49842;SDS011;55559;48.898;9.184;2023-05-10T02:45:32;0.30;;;0.20;;
49842;SDS011;55559;48.898;9.184;2023-05-10T02:48:06;1.13;;;0.22;;
49842;SDS011;55559;48.898;9.184;2023-05-10T02:50:35;1.13;;;0.30;;
49842;SDS011;55559;48.898;9.184;2023-05-10T02:53:06;0.20;;;0.20;;
49842;SDS011;55559;48.898;9.184;2023-05-10T02:55:39;0.70;;;0.30;;
49842;SDS011;55559;48.898;9.184;2023-05-10T02:58:08;5.97;;;0.40;;
49842;SDS011;55559;48.898;9.184;2023-05-10T03:00:35;1.33;;;0.40;;
49842;SDS011;55559;48.898;9.184;2023-05-10T03:03:04;4.15;;;0.60;;
49842;SDS011;55559;48.898;9.184;2023-05-10T03:05:32;3.08;;;0.40;;
49842;SDS011;55559;48.898;9.184;2023-05-10T03:08:04;0.60;;;0.30;;
49842;SDS011;55559;48.898;9.184;2023-05-10T03:10:33;1.27;;;0.40;;
49842;SDS011;55559;48.898;9.184;2023-05-10T03:13:11;3.88;;;0.40;;
49842;SDS011;55559;48.898;9.184;2023-05-10T03:15:47;0.75;;;0.40;;
49842;SDS011;55559;48.898;9.184;2023-05-10T03:18:23;1.95;;;0.40;;
49842;SDS011;55559;48.898;9.184;2023-05-10T03:23:26;0.85;;;0.40;;
49842;SDS011;55559;48.898;9.184;2023-05-10T03:25:57;2.60;;;0.40;;
49842;SDS011;55559;48.898;9.184;2023-05-10T03:28:26;2.60;;;0.40;;
49842;SDS011;55559;48.898;9.184;2023-05-10T03:30:55;0.80;;;0.40;;
49842;SDS011;55559;48.898;9.184;2023-05-10T03:33:23;3.53;;;0.50;;
49842;SDS011;55559;48.898;9.184;2023-05-10T03:35:53;3.70;;;0.40;;
49842;SDS011;55559;48.898;9.184;2023-05-10T03:38:20;2.25;;;0.80;;
49842;SDS011;55559;48.898;9.184;2023-05-10T03:40:49;2.20;;;0.60;;
49842;SDS011;55559;48.898;9.184;2023-05-10T03:43:17;1.67;;;0.40;;
49842;SDS011;55559;48.898;9.184;2023-05-10T03:45:44;2.33;;;0.70;;
49842;SDS011;55559;48.898;9.184;2023-05-10T03:48:12;3.08;;;0.60;;
49842;SDS011;55559;48.898;9.184;2023-05-10T03:50:41;1.67;;;0.57;;
49842;SDS011;55559;48.898;9.184;2023-05-10T03:53:09;0.90;;;0.60;;
49842;SDS011;55559;48.898;9.184;2023-05-10T03:55:37;3.47;;;0.60;;
49842;SDS011;55559;48.898;9.184;2023-05-10T03:58:06;1.05;;;0.60;;
49842;SDS011;55559;48.898;9.184;2023-05-10T04:00:37;1.42;;;0.63;;
49842;SDS011;55559;48.898;9.184;2023-05-10T04:03:09;3.05;;;0.80;;
49842;SDS011;55559;48.898;9.184;2023-05-10T04:05:37;1.08;;;0.60;;
49842;SDS011;55559;48.898;9.184;2023-05-10T04:08:06;1.63;;;0.60;;
49842;SDS011;55559;48.898;9.184;2023-05-10T04:10:33;0.85;;;0.52;;
49842;SDS011;55559;48.898;9.184;2023-05-10T04:13:01;3.22;;;0.68;;
49842;SDS011;55559;48.898;9.184;2023-05-10T04:15:30;1.48;;;0.90;;
49842;SDS011;55559;48.898;9.184;2023-05-10T04:17:57;4.82;;;0.77;;
49842;SDS011;55559;48.898;9.184;2023-05-10T04:20:25;3.08;;;0.73;;
49842;SDS011;55559;48.898;9.184;2023-05-10T04:22:56;2.47;;;0.73;;
49842;SDS011;55559;48.898;9.184;2023-05-10T04:25:24;1.52;;;0.60;;
49842;SDS011;55559;48.898;9.184;2023-05-10T04:27:51;1.48;;;0.50;;
49842;SDS011;55559;48.898;9.184;2023-05-10T04:30:19;0.60;;;0.40;;
49842;SDS011;55559;48.898;9.184;2023-05-10T04:32:48;0.80;;;0.43;;
49842;SDS011;55559;48.898;9.184;2023-05-10T04:35:15;5.00;;;0.70;;
49842;SDS011;55559;48.898;9.184;2023-05-10T04:37:43;1.05;;;0.40;;
49842;SDS011;55559;48.898;9.184;2023-05-10T04:40:10;1.70;;;0.52;;
49842;SDS011;55559;48.898;9.184;2023-05-10T04:42:39;4.28;;;0.50;;
49842;SDS011;55559;48.898;9.184;2023-05-10T04:45:07;0.98;;;0.40;;
49842;SDS011;55559;48.898;9.184;2023-05-10T04:47:37;1.95;;;0.40;;
49842;SDS011;55559;48.898;9.184;2023-05-10T04:50:06;1.98;;;0.50;;
49842;SDS011;55559;48.898;9.184;2023-05-10T04:52:35;1.70;;;0.40;;
49842;SDS011;55559;48.898;9.184;2023-05-10T04:55:03;5.53;;;0.50;;
49842;SDS011;55559;48.898;9.184;2023-05-10T04:57:32;3.38;;;0.50;;
49842;SDS011;55559;48.898;9.184;2023-05-10T05:00:00;1.08;;;0.30;;
49842;SDS011;55559;48.898;9.184;2023-05-10T05:02:27;5.47;;;0.50;;
49842;SDS011;55559;48.898;9.184;2023-05-10T05:04:56;3.00;;;0.60;;
49842;SDS011;55559;48.898;9.184;2023-05-10T05:07:26;4.15;;;0.40;;
49842;SDS011;55559;48.898;9.184;2023-05-10T05:09:53;0.80;;;0.40;;
49842;SDS011;55559;48.898;9.184;2023-05-10T05:12:21;1.05;;;0.47;;
49842;SDS011;55559;48.898;9.184;2023-05-10T05:14:48;2.78;;;0.50;;
49842;SDS011;55559;48.898;9.184;2023-05-10T05:17:16;0.60;;;0.50;;
49842;SDS011;55559;48.898;9.184;2023-05-10T05:19:43;2.20;;;0.57;;
49842;SDS011;55559;48.898;9.184;2023-05-10T05:22:10;2.55;;;0.50;;
49842;SDS011;55559;48.898;9.184;2023-05-10T05:24:39;6.13;;;0.50;;
49842;SDS011;55559;48.898;9.184;2023-05-10T05:27:15;1.65;;;0.60;;
49842;SDS011;55559;48.898;9.184;2023-05-10T05:29:44;1.48;;;0.73;;
49842;SDS011;55559;48.898;9.184;2023-05-10T05:32:11;3.03;;;0.50;;
49842;SDS011;55559;48.898;9.184;2023-05-10T05:34:39;1.10;;;0.43;;
49842;SDS011;55559;48.898;9.184;2023-05-10T05:37:06;4.57;;;0.60;;
49842;SDS011;55559;48.898;9.184;2023-05-10T05:39:35;2.85;;;0.50;;
49842;SDS011;55559;48.898;9.184;2023-05-10T05:42:04;2.63;;;0.75;;
49842;SDS011;55559;48.898;9.184;2023-05-10T05:44:32;2.63;;;0.88;;
49842;SDS011;55559;48.898;9.184;2023-05-10T05:47:00;3.90;;;0.52;;
49842;SDS011;55559;48.898;9.184;2023-05-10T05:49:27;3.45;;;0.70;;
49842;SDS011;55559;48.898;9.184;2023-05-10T05:51:58;4.15;;;1.02;;
49842;SDS011;55559;48.898;9.184;2023-05-10T05:54:25;3.30;;;0.70;;
49842;SDS011;55559;48.898;9.184;2023-05-10T05:56:53;8.32;;;1.02;;
49842;SDS011;55559;48.898;9.184;2023-05-10T05:59:24;4.93;;;0.65;;
49842;SDS011;55559;48.898;9.184;2023-05-10T06:01:51;1.38;;;0.60;;
49842;SDS011;55559;48.898;9.184;2023-05-10T06:04:20;1.98;;;0.60;;
49842;SDS011;55559;48.898;9.184;2023-05-10T06:06:47;3.53;;;0.60;;
49842;SDS011;55559;48.898;9.184;2023-05-10T06:09:16;3.08;;;0.60;;
49842;SDS011;55559;48.898;9.184;2023-05-10T06:11:44;3.53;;;0.55;;
49842;SDS011;55559;48.898;9.184;2023-05-10T06:14:12;4.22;;;0.60;;
49842;SDS011;55559;48.898;9.184;2023-05-10T06:16:40;10.20;;;0.68;;
49842;SDS011;55559;48.898;9.184;2023-05-10T06:19:08;4.47;;;0.80;;
49842;SDS011;55559;48.898;9.184;2023-05-10T06:21:35;3.05;;;0.80;;
49842;SDS011;55559;48.898;9.184;2023-05-10T06:24:05;1.10;;;0.60;;
49842;SDS011;55559;48.898;9.184;2023-05-10T06:26:33;3.22;;;0.90;;
49842;SDS011;55559;48.898;9.184;2023-05-10T06:29:00;13.98;;;0.90;;
49842;SDS011;55559;48.898;9.184;2023-05-10T06:31:28;1.75;;;0.80;;
49842;SDS011;55559;48.898;9.184;2023-05-10T06:33:57;2.17;;;0.60;;
49842;SDS011;55559;48.898;9.184;2023-05-10T06:36:25;4.45;;;0.63;;
49842;SDS011;55559;48.898;9.184;2023-05-10T06:38:53;3.50;;;0.73;;
49842;SDS011;55559;48.898;9.184;2023-05-10T06:41:21;1.98;;;0.75;;
49842;SDS011;55559;48.898;9.184;2023-05-10T06:43:49;2.10;;;0.50;;
49842;SDS011;55559;48.898;9.184;2023-05-10T06:46:17;1.85;;;0.50;;
49842;SDS011;55559;48.898;9.184;2023-05-10T06:48:44;1.80;;;0.60;;
49842;SDS011;55559;48.898;9.184;2023-05-10T06:51:13;1.40;;;0.60;;
49842;SDS011;55559;48.898;9.184;2023-05-10T06:53:40;3.53;;;0.40;;
49842;SDS011;55559;48.898;9.184;2023-05-10T06:56:10;3.10;;;0.30;;
49842;SDS011;55559;48.898;9.184;2023-05-10T06:58:38;2.47;;;0.35;;
49842;SDS011;55559;48.898;9.184;2023-05-10T07:01:06;1.25;;;0.20;;
49842;SDS011;55559;48.898;9.184;2023-05-10T07:03:33;1.95;;;0.38;;
49842;SDS011;55559;48.898;9.184;2023-05-10T07:06:01;2.85;;;0.38;;
49842;SDS011;55559;48.898;9.184;2023-05-10T07:08:31;1.58;;;0.85;;
49842;SDS011;55559;48.898;9.184;2023-05-10T07:10:59;1.15;;;0.30;;
49842;SDS011;55559;48.898;9.184;2023-05-10T07:13:27;2.00;;;0.60;;
49842;SDS011;55559;48.898;9.184;2023-05-10T07:15:54;1.98;;;0.32;;
49842;SDS011;55559;48.898;9.184;2023-05-10T07:18:22;2.28;;;0.40;;
49842;SDS011;55559;48.898;9.184;2023-05-10T07:20:50;7.25;;;0.73;;
49842;SDS011;55559;48.898;9.184;2023-05-10T07:23:18;1.33;;;0.28;;
49842;SDS011;55559;48.898;9.184;2023-05-10T07:25:48;0.70;;;0.30;;
49842;SDS011;55559;48.898;9.184;2023-05-10T07:28:17;0.75;;;0.30;;
49842;SDS011;55559;48.898;9.184;2023-05-10T07:30:45;2.67;;;0.30;;
49842;SDS011;55559;48.898;9.184;2023-05-10T07:33:14;0.80;;;0.30;;
49842;SDS011;55559;48.898;9.184;2023-05-10T07:35:42;3.58;;;0.30;;
49842;SDS011;55559;48.898;9.184;2023-05-10T07:38:10;3.75;;;0.60;;
49842;SDS011;55559;48.898;9.184;2023-05-10T07:40:38;1.45;;;0.28;;
49842;SDS011;55559;48.898;9.184;2023-05-10T07:43:07;3.50;;;0.30;;
49842;SDS011;55559;48.898;9.184;2023-05-10T07:45:34;3.92;;;0.25;;
49842;SDS011;55559;48.898;9.184;2023-05-10T07:48:03;4.10;;;0.38;;
49842;SDS011;55559;48.898;9.184;2023-05-10T07:50:30;1.95;;;0.20;;
49842;SDS011;55559;48.898;9.184;2023-05-10T07:53:00;3.92;;;0.10;;
49842;SDS011;55559;48.898;9.184;2023-05-10T07:55:27;0.90;;;0.15;;
49842;SDS011;55559;48.898;9.184;2023-05-10T07:57:55;0.65;;;0.20;;
49842;SDS011;55559;48.898;9.184;2023-05-10T08:00:24;1.65;;;0.13;;
49842;SDS011;55559;48.898;9.184;2023-05-10T08:02:53;2.15;;;0.10;;
49842;SDS011;55559;48.898;9.184;2023-05-10T08:05:20;1.65;;;0.20;;
49842;SDS011;55559;48.898;9.184;2023-05-10T08:07:48;2.80;;;0.10;;
49842;SDS011;55559;48.898;9.184;2023-05-10T08:10:15;0.80;;;0.10;;
49842;SDS011;55559;48.898;9.184;2023-05-10T08:12:42;1.48;;;0.10;;
49842;SDS011;55559;48.898;9.184;2023-05-10T08:15:10;1.52;;;0.10;;
49842;SDS011;55559;48.898;9.184;2023-05-10T08:17:40;0.40;;;0.10;;
49842;SDS011;55559;48.898;9.184;2023-05-10T08:20:08;3.53;;;0.10;;
49842;SDS011;55559;48.898;9.184;2023-05-10T08:22:38;1.30;;;0.10;;
49842;SDS011;55559;48.898;9.184;2023-05-10T08:25:05;1.00;;;0.00;;
49842;SDS011;55559;48.898;9.184;2023-05-10T08:27:33;0.40;;;0.00;;
49842;SDS011;55559;48.898;9.184;2023-05-10T08:30:01;0.08;;;0.00;;
49842;SDS011;55559;48.898;9.184;2023-05-10T08:32:40;0.60;;;0.00;;
49842;SDS011;55559;48.898;9.184;2023-05-10T08:35:08;0.45;;;0.08;;
49842;SDS011;55559;48.898;9.184;2023-05-10T08:37:38;1.15;;;0.10;;
49842;SDS011;55559;48.898;9.184;2023-05-10T08:40:05;1.17;;;0.10;;
49842;SDS011;55559;48.898;9.184;2023-05-10T08:42:36;1.80;;;0.15;;
49842;SDS011;55559;48.898;9.184;2023-05-10T08:45:09;1.88;;;0.10;;
49842;SDS011;55559;48.898;9.184;2023-05-10T08:47:38;1.45;;;0.10;;
49842;SDS011;55559;48.898;9.184;2023-05-10T08:50:07;3.75;;;0.10;;
49842;SDS011;55559;48.898;9.184;2023-05-10T08:52:37;3.50;;;0.10;;
49842;SDS011;55559;48.898;9.184;2023-05-10T08:55:08;1.52;;;0.10;;
49842;SDS011;55559;48.898;9.184;2023-05-10T08:57:41;3.40;;;0.10;;
49842;SDS011;55559;48.898;9.184;2023-05-10T09:00:09;1.08;;;0.00;;
49842;SDS011;55559;48.898;9.184;2023-05-10T09:02:44;0.17;;;0.00;;
49842;SDS011;55559;48.898;9.184;2023-05-10T09:05:13;0.15;;;0.00;;
49842;SDS011;55559;48.898;9.184;2023-05-10T09:07:43;0.63;;;0.00;;
49842;SDS011;55559;48.898;9.184;2023-05-10T09:10:11;0.80;;;0.05;;
49842;SDS011;55559;48.898;9.184;2023-05-10T09:12:40;2.63;;;0.10;;
49842;SDS011;55559;48.898;9.184;2023-05-10T09:15:09;0.30;;;0.05;;
49842;SDS011;55559;48.898;9.184;2023-05-10T09:17:37;3.22;;;0.10;;
49842;SDS011;55559;48.898;9.184;2023-05-10T09:20:06;0.65;;;0.00;;
49842;SDS011;55559;48.898;9.184;2023-05-10T09:22:36;1.45;;;0.30;;
49842;SDS011;55559;48.898;9.184;2023-05-10T09:25:05;1.17;;;0.10;;
49842;SDS011;55559;48.898;9.184;2023-05-10T09:27:33;0.95;;;0.05;;
49842;SDS011;55559;48.898;9.184;2023-05-10T09:30:01;0.43;;;0.05;;
49842;SDS011;55559;48.898;9.184;2023-05-10T09:32:38;0.30;;;0.10;;
49842;SDS011;55559;48.898;9.184;2023-05-10T09:35:08;3.75;;;0.10;;
49842;SDS011;55559;48.898;9.184;2023-05-10T09:37:37;0.28;;;0.00;;
49842;SDS011;55559;48.898;9.184;2023-05-10T09:40:11;1.17;;;0.10;;
49842;SDS011;55559;48.898;9.184;2023-05-10T09:42:40;2.75;;;0.10;;
49842;SDS011;55559;48.898;9.184;2023-05-10T09:45:09;0.63;;;0.10;;
49842;SDS011;55559;48.898;9.184;2023-05-10T09:47:38;0.47;;;0.05;;
49842;SDS011;55559;48.898;9.184;2023-05-10T09:50:06;1.33;;;0.05;;
49842;SDS011;55559;48.898;9.184;2023-05-10T09:52:46;0.40;;;0.10;;
49842;SDS011;55559;48.898;9.184;2023-05-10T09:55:19;0.17;;;0.00;;
49842;SDS011;55559;48.898;9.184;2023-05-10T09:57:47;0.35;;;0.05;;
49842;SDS011;55559;48.898;9.184;2023-05-10T10:00:16;0.25;;;0.08;;
49842;SDS011;55559;48.898;9.184;2023-05-10T10:02:45;0.00;;;0.00;;
49842;SDS011;55559;48.898;9.184;2023-05-10T10:05:14;2.05;;;0.03;;
49842;SDS011;55559;48.898;9.184;2023-05-10T10:07:42;0.30;;;0.00;;
49842;SDS011;55559;48.898;9.184;2023-05-10T10:10:11;0.85;;;0.00;;
49842;SDS011;55559;48.898;9.184;2023-05-10T10:12:41;3.20;;;0.10;;
49842;SDS011;55559;48.898;9.184;2023-05-10T10:15:10;0.35;;;0.10;;
49842;SDS011;55559;48.898;9.184;2023-05-10T10:17:39;0.30;;;0.00;;
49842;SDS011;55559;48.898;9.184;2023-05-10T10:20:07;0.40;;;0.10;;
49842;SDS011;55559;48.898;9.184;2023-05-10T10:22:36;0.40;;;0.10;;
49842;SDS011;55559;48.898;9.184;2023-05-10T10:25:04;1.75;;;0.13;;
49842;SDS011;55559;48.898;9.184;2023-05-10T10:27:36;0.55;;;0.00;;
49842;SDS011;55559;48.898;9.184;2023-05-10T10:30:13;2.08;;;0.00;;
49842;SDS011;55559;48.898;9.184;2023-05-10T10:33:01;2.03;;;0.10;;
49842;SDS011;55559;48.898;9.184;2023-05-10T10:35:44;5.35;;;0.10;;
49842;SDS011;55559;48.898;9.184;2023-05-10T10:38:13;2.47;;;0.10;;
49842;SDS011;55559;48.898;9.184;2023-05-10T10:41:01;1.55;;;0.00;;
49842;SDS011;55559;48.898;9.184;2023-05-10T10:43:31;0.38;;;0.03;;
49842;SDS011;55559;48.898;9.184;2023-05-10T10:46:14;0.32;;;0.05;;
49842;SDS011;55559;48.898;9.184;2023-05-10T10:48:47;0.80;;;0.00;;
49842;SDS011;55559;48.898;9.184;2023-05-10T10:51:18;2.83;;;0.00;;
49842;SDS011;55559;48.898;9.184;2023-05-10T10:53:45;0.50;;;0.00;;
49842;SDS011;55559;48.898;9.184;2023-05-10T10:56:17;0.40;;;0.00;;
49842;SDS011;55559;48.898;9.184;2023-05-10T10:58:51;0.88;;;0.10;;
49842;SDS011;55559;48.898;9.184;2023-05-10T11:01:19;0.45;;;0.08;;
49842;SDS011;55559;48.898;9.184;2023-05-10T11:06:44;0.30;;;0.00;;
49842;SDS011;55559;48.898;9.184;2023-05-10T11:09:11;1.05;;;0.00;;
49842;SDS011;55559;48.898;9.184;2023-05-10T11:11:50;1.70;;;0.05;;
49842;SDS011;55559;48.898;9.184;2023-05-10T11:14:32;1.85;;;0.10;;
49842;SDS011;55559;48.898;9.184;2023-05-10T11:16:59;3.33;;;0.10;;
49842;SDS011;55559;48.898;9.184;2023-05-10T11:19:29;2.30;;;0.10;;
49842;SDS011;55559;48.898;9.184;2023-05-10T11:22:11;1.08;;;0.13;;
49842;SDS011;55559;48.898;9.184;2023-05-10T11:24:40;5.25;;;1.02;;
49842;SDS011;55559;48.898;9.184;2023-05-10T11:27:25;1.83;;;0.10;;
49842;SDS011;55559;48.898;9.184;2023-05-10T11:29:54;1.13;;;0.10;;
49842;SDS011;55559;48.898;9.184;2023-05-10T11:32:21;1.65;;;0.10;;
49842;SDS011;55559;48.898;9.184;2023-05-10T11:34:49;3.30;;;0.10;;
49842;SDS011;55559;48.898;9.184;2023-05-10T11:37:17;0.88;;;0.08;;
49842;SDS011;55559;48.898;9.184;2023-05-10T11:39:45;3.05;;;0.10;;
49842;SDS011;55559;48.898;9.184;2023-05-10T11:42:13;1.73;;;0.10;;
49842;SDS011;55559;48.898;9.184;2023-05-10T11:44:41;0.75;;;0.10;;
49842;SDS011;55559;48.898;9.184;2023-05-10T11:47:12;1.65;;;0.10;;
49842;SDS011;55559;48.898;9.184;2023-05-10T11:49:43;1.95;;;0.20;;
49842;SDS011;55559;48.898;9.184;2023-05-10T11:52:12;3.20;;;0.30;;
49842;SDS011;55559;48.898;9.184;2023-05-10T11:54:44;0.47;;;0.10;;
49842;SDS011;55559;48.898;9.184;2023-05-10T11:57:13;1.65;;;0.20;;
49842;SDS011;55559;48.898;9.184;2023-05-10T11:59:40;2.65;;;0.20;;
49842;SDS011;55559;48.898;9.184;2023-05-10T12:02:07;6.45;;;0.40;;
49842;SDS011;55559;48.898;9.184;2023-05-10T12:04:36;3.03;;;0.30;;
49842;SDS011;55559;48.898;9.184;2023-05-10T12:07:04;1.65;;;0.20;;
49842;SDS011;55559;48.898;9.184;2023-05-10T12:09:32;1.25;;;0.20;;
49842;SDS011;55559;48.898;9.184;2023-05-10T12:12:01;4.80;;;0.28;;
49842;SDS011;55559;48.898;9.184;2023-05-10T12:14:29;1.85;;;0.10;;
49842;SDS011;55559;48.898;9.184;2023-05-10T12:17:01;2.95;;;0.20;;
49842;SDS011;55559;48.898;9.184;2023-05-10T12:19:37;5.10;;;0.55;;
49842;SDS011;55559;48.898;9.184;2023-05-10T12:22:06;4.53;;;0.50;;
49842;SDS011;55559;48.898;9.184;2023-05-10T12:24:34;1.48;;;0.30;;
49842;SDS011;55559;48.898;9.184;2023-05-10T12:27:04;4.68;;;0.40;;
49842;SDS011;55559;48.898;9.184;2023-05-10T12:29:34;3.90;;;0.20;;
49842;SDS011;55559;48.898;9.184;2023-05-10T12:32:01;5.97;;;0.20;;
49842;SDS011;55559;48.898;9.184;2023-05-10T12:34:30;5.75;;;0.20;;
49842;SDS011;55559;48.898;9.184;2023-05-10T12:37:00;4.03;;;0.10;;
49842;SDS011;55559;48.898;9.184;2023-05-10T12:39:38;7.07;;;0.17;;
49842;SDS011;55559;48.898;9.184;2023-05-10T12:42:06;1.60;;;0.10;;
49842;SDS011;55559;48.898;9.184;2023-05-10T12:44:33;2.15;;;0.20;;
49842;SDS011;55559;48.898;9.184;2023-05-10T12:47:02;2.20;;;0.10;;
49842;SDS011;55559;48.898;9.184;2023-05-10T12:49:30;1.80;;;0.15;;
49842;SDS011;55559;48.898;9.184;2023-05-10T12:52:03;1.08;;;0.17;;
49842;SDS011;55559;48.898;9.184;2023-05-10T12:54:30;1.55;;;0.28;;
49842;SDS011;55559;48.898;9.184;2023-05-10T12:56:57;1.35;;;0.10;;
49842;SDS011;55559;48.898;9.184;2023-05-10T12:59:25;3.58;;;0.10;;
49842;SDS011;55559;48.898;9.184;2023-05-10T13:01:53;1.90;;;0.10;;
49842;SDS011;55559;48.898;9.184;2023-05-10T13:04:20;4.47;;;0.20;;
49842;SDS011;55559;48.898;9.184;2023-05-10T13:06:48;0.40;;;0.10;;
49842;SDS011;55559;48.898;9.184;2023-05-10T13:09:20;4.40;;;0.20;;
49842;SDS011;55559;48.898;9.184;2023-05-10T13:11:48;2.65;;;0.10;;
49842;SDS011;55559;48.898;9.184;2023-05-10T13:14:16;5.15;;;0.10;;
49842;SDS011;55559;48.898;9.184;2023-05-10T13:16:44;3.08;;;0.10;;
49842;SDS011;55559;48.898;9.184;2023-05-10T13:19:12;2.53;;;0.30;;
49842;SDS011;55559;48.898;9.184;2023-05-10T13:21:39;7.88;;;1.42;;
49842;SDS011;55559;48.898;9.184;2023-05-10T13:24:09;5.45;;;0.20;;
49842;SDS011;55559;48.898;9.184;2023-05-10T13:26:40;2.50;;;0.20;;
49842;SDS011;55559;48.898;9.184;2023-05-10T13:29:07;0.85;;;0.10;;
49842;SDS011;55559;48.898;9.184;2023-05-10T13:31:35;1.40;;;0.20;;
49842;SDS011;55559;48.898;9.184;2023-05-10T13:34:03;0.90;;;0.17;;
49842;SDS011;55559;48.898;9.184;2023-05-10T13:36:32;3.58;;;0.30;;
49842;SDS011;55559;48.898;9.184;2023-05-10T13:38:59;1.70;;;0.32;;
49842;SDS011;55559;48.898;9.184;2023-05-10T13:41:28;0.82;;;0.20;;
49842;SDS011;55559;48.898;9.184;2023-05-10T13:43:57;3.05;;;0.10;;
49842;SDS011;55559;48.898;9.184;2023-05-10T13:46:25;3.38;;;0.10;;
49842;SDS011;55559;48.898;9.184;2023-05-10T13:48:52;9.77;;;0.15;;
49842;SDS011;55559;48.898;9.184;2023-05-10T13:51:19;2.20;;;0.10;;
49842;SDS011;55559;48.898;9.184;2023-05-10T13:53:47;0.88;;;0.10;;
49842;SDS011;55559;48.898;9.184;2023-05-10T13:56:18;0.47;;;0.13;;
49842;SDS011;55559;48.898;9.184;2023-05-10T13:58:46;4.95;;;0.10;;
49842;SDS011;55559;48.898;9.184;2023-05-10T14:01:16;1.75;;;0.10;;
49842;SDS011;55559;48.898;9.184;2023-05-10T14:03:43;0.70;;;0.10;;
49842;SDS011;55559;48.898;9.184;2023-05-10T14:06:11;2.47;;;0.10;;
49842;SDS011;55559;48.898;9.184;2023-05-10T14:08:39;5.30;;;0.32;;
49842;SDS011;55559;48.898;9.184;2023-05-10T14:11:08;0.38;;;0.10;;
49842;SDS011;55559;48.898;9.184;2023-05-10T14:13:36;3.72;;;0.10;;
49842;SDS011;55559;48.898;9.184;2023-05-10T14:16:05;3.88;;;0.20;;
49842;SDS011;55559;48.898;9.184;2023-05-10T14:18:34;1.70;;;0.20;;
49842;SDS011;55559;48.898;9.184;2023-05-10T14:21:02;1.60;;;0.15;;
49842;SDS011;55559;48.898;9.184;2023-05-10T14:23:30;3.38;;;0.15;;
49842;SDS011;55559;48.898;9.184;2023-05-10T14:26:07;6.03;;;0.10;;
49842;SDS011;55559;48.898;9.184;2023-05-10T14:28:35;4.00;;;0.10;;
49842;SDS011;55559;48.898;9.184;2023-05-10T14:31:05;0.47;;;0.08;;
49842;SDS011;55559;48.898;9.184;2023-05-10T14:33:34;3.17;;;0.10;;
49842;SDS011;55559;48.898;9.184;2023-05-10T14:36:02;2.97;;;0.15;;
49842;SDS011;55559;48.898;9.184;2023-05-10T14:38:30;1.40;;;0.20;;
49842;SDS011;55559;48.898;9.184;2023-05-10T14:40:57;1.27;;;0.10;;
49842;SDS011;55559;48.898;9.184;2023-05-10T14:43:24;0.57;;;0.10;;
49842;SDS011;55559;48.898;9.184;2023-05-10T14:45:54;5.85;;;0.10;;
49842;SDS011;55559;48.898;9.184;2023-05-10T14:48:21;0.50;;;0.10;;
49842;SDS011;55559;48.898;9.184;2023-05-10T14:51:21;2.47;;;0.10;;
49842;SDS011;55559;48.898;9.184;2023-05-10T14:53:48;1.65;;;0.10;;
49842;SDS011;55559;48.898;9.184;2023-05-10T14:56:15;0.45;;;0.03;;
49842;SDS011;55559;48.898;9.184;2023-05-10T14:58:44;4.03;;;0.10;;
49842;SDS011;55559;48.898;9.184;2023-05-10T15:01:11;5.97;;;0.10;;
49842;SDS011;55559;48.898;9.184;2023-05-10T15:03:38;4.10;;;0.20;;
49842;SDS011;55559;48.898;9.184;2023-05-10T15:06:07;2.45;;;0.20;;
49842;SDS011;55559;48.898;9.184;2023-05-10T15:08:36;0.60;;;0.10;;
49842;SDS011;55559;48.898;9.184;2023-05-10T15:11:04;3.95;;;0.38;;
49842;SDS011;55559;48.898;9.184;2023-05-10T15:13:31;15.48;;;0.88;;